sensor_id;sensor_type;location;lat;lon;timestamp;P1;durP1;ratioP1;P2;durP2;ratioP2
69381;SDS011;56560;50.692;12.844;2024-01-06T00:01:30;14.23;;;5.00;;
69381;SDS011;56560;50.692;12.844;2024-01-06T00:03:56;12.90;;;5.03;;
69381;SDS011;56560;50.692;12.844;2024-01-06T00:06:21;14.13;;;5.70;;
69381;SDS011;56560;50.692;12.844;2024-01-06T00:08:47;14.13;;;5.00;;
69381;SDS011;56560;50.692;12.844;2024-01-06T00:11:19;13.07;;;4.93;;
69381;SDS011;56560;50.692;12.844;2024-01-06T00:13:45;13.13;;;5.07;;
69381;SDS011;56560;50.692;12.844;2024-01-06T00:16:11;13.75;;;4.90;;
69381;SDS011;56560;50.692;12.844;2024-01-06T00:18:37;13.27;;;4.70;;
69381;SDS011;56560;50.692;12.844;2024-01-06T00:21:02;12.48;;;4.65;;
69381;SDS011;56560;50.692;12.844;2024-01-06T00:23:28;15.30;;;5.00;;
69381;SDS011;56560;50.692;12.844;2024-01-06T00:25:54;13.20;;;4.80;;
69381;SDS011;56560;50.692;12.844;2024-01-06T00:28:19;15.55;;;5.35;;
69381;SDS011;56560;50.692;12.844;2024-01-06T00:30:45;13.07;;;4.90;;
69381;SDS011;56560;50.692;12.844;2024-01-06T00:33:11;13.00;;;4.65;;
69381;SDS011;56560;50.692;12.844;2024-01-06T00:35:37;13.48;;;5.22;;
69381;SDS011;56560;50.692;12.844;2024-01-06T00:38:04;13.98;;;4.97;;
69381;SDS011;56560;50.692;12.844;2024-01-06T00:40:29;13.13;;;5.00;;
69381;SDS011;56560;50.692;12.844;2024-01-06T00:42:57;13.48;;;4.88;;
69381;SDS011;56560;50.692;12.844;2024-01-06T00:45:23;15.10;;;4.82;;
69381;SDS011;56560;50.692;12.844;2024-01-06T00:47:49;15.93;;;4.93;;
69381;SDS011;56560;50.692;12.844;2024-01-06T00:50:14;13.73;;;4.78;;
69381;SDS011;56560;50.692;12.844;2024-01-06T00:52:41;14.00;;;4.57;;
69381;SDS011;56560;50.692;12.844;2024-01-06T00:55:07;11.90;;;4.40;;
69381;SDS011;56560;50.692;12.844;2024-01-06T00:57:33;12.48;;;4.65;;
69381;SDS011;56560;50.692;12.844;2024-01-06T00:59:59;12.93;;;4.70;;
69381;SDS011;56560;50.692;12.844;2024-01-06T01:02:24;13.93;;;4.53;;
69381;SDS011;56560;50.692;12.844;2024-01-06T01:04:50;13.90;;;4.40;;
69381;SDS011;56560;50.692;12.844;2024-01-06T01:07:17;13.55;;;4.15;;
69381;SDS011;56560;50.692;12.844;2024-01-06T01:09:43;14.53;;;4.30;;
69381;SDS011;56560;50.692;12.844;2024-01-06T01:12:08;11.07;;;3.88;;
69381;SDS011;56560;50.692;12.844;2024-01-06T01:14:34;10.17;;;3.80;;
69381;SDS011;56560;50.692;12.844;2024-01-06T01:17:00;10.13;;;3.10;;
69381;SDS011;56560;50.692;12.844;2024-01-06T01:19:25;14.20;;;3.67;;
69381;SDS011;56560;50.692;12.844;2024-01-06T01:21:51;11.13;;;3.58;;
69381;SDS011;56560;50.692;12.844;2024-01-06T01:24:20;9.97;;;3.33;;
69381;SDS011;56560;50.692;12.844;2024-01-06T01:26:46;10.27;;;2.85;;
69381;SDS011;56560;50.692;12.844;2024-01-06T01:29:12;11.27;;;3.15;;
69381;SDS011;56560;50.692;12.844;2024-01-06T01:31:38;12.57;;;3.20;;
69381;SDS011;56560;50.692;12.844;2024-01-06T01:34:03;10.17;;;3.20;;
69381;SDS011;56560;50.692;12.844;2024-01-06T01:36:29;10.38;;;3.60;;
69381;SDS011;56560;50.692;12.844;2024-01-06T01:38:54;11.80;;;4.00;;
69381;SDS011;56560;50.692;12.844;2024-01-06T01:41:20;10.70;;;3.43;;
69381;SDS011;56560;50.692;12.844;2024-01-06T01:43:46;10.85;;;3.33;;
69381;SDS011;56560;50.692;12.844;2024-01-06T01:46:11;10.13;;;3.30;;
69381;SDS011;56560;50.692;12.844;2024-01-06T01:48:37;11.27;;;3.95;;
69381;SDS011;56560;50.692;12.844;2024-01-06T01:51:03;10.02;;;3.17;;
69381;SDS011;56560;50.692;12.844;2024-01-06T01:53:29;11.63;;;3.53;;
69381;SDS011;56560;50.692;12.844;2024-01-06T01:55:56;9.75;;;3.30;;
69381;SDS011;56560;50.692;12.844;2024-01-06T01:58:22;10.45;;;3.40;;
69381;SDS011;56560;50.692;12.844;2024-01-06T02:00:48;12.05;;;3.47;;
69381;SDS011;56560;50.692;12.844;2024-01-06T02:03:14;11.63;;;3.42;;
69381;SDS011;56560;50.692;12.844;2024-01-06T02:05:41;12.40;;;3.43;;
69381;SDS011;56560;50.692;12.844;2024-01-06T02:08:07;11.48;;;3.40;;
69381;SDS011;56560;50.692;12.844;2024-01-06T02:10:33;10.23;;;3.42;;
69381;SDS011;56560;50.692;12.844;2024-01-06T02:13:09;12.17;;;3.50;;
69381;SDS011;56560;50.692;12.844;2024-01-06T02:15:36;9.35;;;3.10;;
69381;SDS011;56560;50.692;12.844;2024-01-06T02:18:02;10.15;;;3.20;;
69381;SDS011;56560;50.692;12.844;2024-01-06T02:20:29;10.85;;;3.40;;
69381;SDS011;56560;50.692;12.844;2024-01-06T02:22:55;10.63;;;3.70;;
69381;SDS011;56560;50.692;12.844;2024-01-06T02:25:23;9.75;;;3.63;;
69381;SDS011;56560;50.692;12.844;2024-01-06T02:27:49;12.15;;;3.58;;
69381;SDS011;56560;50.692;12.844;2024-01-06T02:30:15;10.97;;;3.80;;
69381;SDS011;56560;50.692;12.844;2024-01-06T02:32:40;11.50;;;3.67;;
69381;SDS011;56560;50.692;12.844;2024-01-06T02:35:06;10.45;;;3.55;;
69381;SDS011;56560;50.692;12.844;2024-01-06T02:37:32;14.45;;;4.00;;
69381;SDS011;56560;50.692;12.844;2024-01-06T02:39:57;10.23;;;3.27;;
69381;SDS011;56560;50.692;12.844;2024-01-06T02:42:23;11.93;;;3.50;;
69381;SDS011;56560;50.692;12.844;2024-01-06T02:44:50;10.50;;;3.17;;
69381;SDS011;56560;50.692;12.844;2024-01-06T02:47:16;10.63;;;3.25;;
69381;SDS011;56560;50.692;12.844;2024-01-06T02:49:42;12.63;;;3.60;;
69381;SDS011;56560;50.692;12.844;2024-01-06T02:52:08;11.37;;;3.60;;
69381;SDS011;56560;50.692;12.844;2024-01-06T02:54:33;10.45;;;3.53;;
69381;SDS011;56560;50.692;12.844;2024-01-06T02:56:59;12.50;;;3.47;;
69381;SDS011;56560;50.692;12.844;2024-01-06T02:59:24;11.57;;;3.53;;
69381;SDS011;56560;50.692;12.844;2024-01-06T03:01:50;11.10;;;3.47;;
69381;SDS011;56560;50.692;12.844;2024-01-06T03:04:16;15.50;;;3.42;;
69381;SDS011;56560;50.692;12.844;2024-01-06T03:06:42;9.70;;;3.13;;
69381;SDS011;56560;50.692;12.844;2024-01-06T03:09:07;10.05;;;3.45;;
69381;SDS011;56560;50.692;12.844;2024-01-06T03:11:33;9.50;;;3.13;;
69381;SDS011;56560;50.692;12.844;2024-01-06T03:13:59;10.07;;;3.47;;
69381;SDS011;56560;50.692;12.844;2024-01-06T03:16:24;11.15;;;3.38;;
69381;SDS011;56560;50.692;12.844;2024-01-06T03:18:50;10.43;;;3.40;;
69381;SDS011;56560;50.692;12.844;2024-01-06T03:21:16;10.05;;;3.40;;
69381;SDS011;56560;50.692;12.844;2024-01-06T03:23:43;9.80;;;3.30;;
69381;SDS011;56560;50.692;12.844;2024-01-06T03:26:08;10.32;;;3.40;;
69381;SDS011;56560;50.692;12.844;2024-01-06T03:28:34;13.13;;;3.73;;
69381;SDS011;56560;50.692;12.844;2024-01-06T03:30:59;11.18;;;3.67;;
69381;SDS011;56560;50.692;12.844;2024-01-06T03:33:25;9.77;;;3.50;;
69381;SDS011;56560;50.692;12.844;2024-01-06T03:35:51;12.67;;;3.33;;
69381;SDS011;56560;50.692;12.844;2024-01-06T03:38:16;9.77;;;3.88;;
69381;SDS011;56560;50.692;12.844;2024-01-06T03:40:42;11.43;;;3.70;;
69381;SDS011;56560;50.692;12.844;2024-01-06T03:43:07;11.20;;;3.50;;
69381;SDS011;56560;50.692;12.844;2024-01-06T03:45:33;8.55;;;3.00;;
69381;SDS011;56560;50.692;12.844;2024-01-06T03:47:59;10.77;;;3.40;;
69381;SDS011;56560;50.692;12.844;2024-01-06T03:50:24;9.82;;;3.50;;
69381;SDS011;56560;50.692;12.844;2024-01-06T03:52:50;11.90;;;3.30;;
69381;SDS011;56560;50.692;12.844;2024-01-06T03:55:16;10.30;;;3.17;;
69381;SDS011;56560;50.692;12.844;2024-01-06T03:57:41;7.15;;;2.63;;
69381;SDS011;56560;50.692;12.844;2024-01-06T04:00:07;9.60;;;3.25;;
69381;SDS011;56560;50.692;12.844;2024-01-06T04:02:33;9.27;;;2.90;;
69381;SDS011;56560;50.692;12.844;2024-01-06T04:04:59;9.15;;;2.90;;
69381;SDS011;56560;50.692;12.844;2024-01-06T04:07:24;9.90;;;3.10;;
69381;SDS011;56560;50.692;12.844;2024-01-06T04:09:50;9.63;;;2.83;;
69381;SDS011;56560;50.692;12.844;2024-01-06T04:12:16;8.70;;;2.70;;
69381;SDS011;56560;50.692;12.844;2024-01-06T04:14:42;7.18;;;2.35;;
69381;SDS011;56560;50.692;12.844;2024-01-06T04:17:07;9.40;;;2.90;;
69381;SDS011;56560;50.692;12.844;2024-01-06T04:19:33;9.80;;;2.77;;
69381;SDS011;56560;50.692;12.844;2024-01-06T04:21:59;8.68;;;2.88;;
69381;SDS011;56560;50.692;12.844;2024-01-06T04:24:25;8.33;;;2.87;;
69381;SDS011;56560;50.692;12.844;2024-01-06T04:26:50;8.68;;;2.83;;
69381;SDS011;56560;50.692;12.844;2024-01-06T04:29:16;10.53;;;3.10;;
69381;SDS011;56560;50.692;12.844;2024-01-06T04:31:42;9.57;;;3.00;;
69381;SDS011;56560;50.692;12.844;2024-01-06T04:34:07;9.30;;;3.00;;
69381;SDS011;56560;50.692;12.844;2024-01-06T04:36:33;8.77;;;2.90;;
69381;SDS011;56560;50.692;12.844;2024-01-06T04:38:59;8.32;;;2.80;;
69381;SDS011;56560;50.692;12.844;2024-01-06T04:41:24;9.83;;;3.10;;
69381;SDS011;56560;50.692;12.844;2024-01-06T04:43:50;9.18;;;3.15;;
69381;SDS011;56560;50.692;12.844;2024-01-06T04:46:16;8.97;;;3.10;;
69381;SDS011;56560;50.692;12.844;2024-01-06T04:48:41;9.25;;;3.05;;
69381;SDS011;56560;50.692;12.844;2024-01-06T04:51:08;8.60;;;3.00;;
69381;SDS011;56560;50.692;12.844;2024-01-06T04:53:38;9.65;;;3.20;;
69381;SDS011;56560;50.692;12.844;2024-01-06T04:56:04;11.00;;;3.10;;
69381;SDS011;56560;50.692;12.844;2024-01-06T04:58:29;9.67;;;3.27;;
69381;SDS011;56560;50.692;12.844;2024-01-06T05:00:55;9.18;;;3.00;;
69381;SDS011;56560;50.692;12.844;2024-01-06T05:03:21;8.93;;;2.97;;
69381;SDS011;56560;50.692;12.844;2024-01-06T05:05:46;9.07;;;3.30;;
69381;SDS011;56560;50.692;12.844;2024-01-06T05:08:12;9.30;;;3.10;;
69381;SDS011;56560;50.692;12.844;2024-01-06T05:10:38;9.38;;;3.20;;
69381;SDS011;56560;50.692;12.844;2024-01-06T05:13:03;8.93;;;3.00;;
69381;SDS011;56560;50.692;12.844;2024-01-06T05:15:29;9.80;;;3.20;;
69381;SDS011;56560;50.692;12.844;2024-01-06T05:17:54;9.27;;;3.10;;
69381;SDS011;56560;50.692;12.844;2024-01-06T05:20:20;10.13;;;3.20;;
69381;SDS011;56560;50.692;12.844;2024-01-06T05:22:46;8.55;;;2.72;;
69381;SDS011;56560;50.692;12.844;2024-01-06T05:25:11;8.43;;;2.77;;
69381;SDS011;56560;50.692;12.844;2024-01-06T05:27:37;10.63;;;2.83;;
69381;SDS011;56560;50.692;12.844;2024-01-06T05:30:03;9.48;;;3.05;;
69381;SDS011;56560;50.692;12.844;2024-01-06T05:32:29;9.32;;;3.05;;
69381;SDS011;56560;50.692;12.844;2024-01-06T05:34:54;8.90;;;3.30;;
69381;SDS011;56560;50.692;12.844;2024-01-06T05:37:20;9.67;;;3.60;;
69381;SDS011;56560;50.692;12.844;2024-01-06T05:39:46;10.75;;;3.88;;
69381;SDS011;56560;50.692;12.844;2024-01-06T05:42:12;11.40;;;4.20;;
69381;SDS011;56560;50.692;12.844;2024-01-06T05:44:39;9.82;;;4.00;;
69381;SDS011;56560;50.692;12.844;2024-01-06T05:47:05;10.10;;;3.70;;
69381;SDS011;56560;50.692;12.844;2024-01-06T05:49:31;9.68;;;3.70;;
69381;SDS011;56560;50.692;12.844;2024-01-06T05:51:57;10.70;;;3.70;;
69381;SDS011;56560;50.692;12.844;2024-01-06T05:54:23;10.00;;;3.30;;
69381;SDS011;56560;50.692;12.844;2024-01-06T05:56:48;9.20;;;3.33;;
69381;SDS011;56560;50.692;12.844;2024-01-06T05:59:14;9.32;;;3.13;;
69381;SDS011;56560;50.692;12.844;2024-01-06T06:01:39;10.02;;;3.42;;
69381;SDS011;56560;50.692;12.844;2024-01-06T06:04:05;9.13;;;3.00;;
69381;SDS011;56560;50.692;12.844;2024-01-06T06:06:31;12.85;;;3.33;;
69381;SDS011;56560;50.692;12.844;2024-01-06T06:08:58;9.02;;;3.30;;
69381;SDS011;56560;50.692;12.844;2024-01-06T06:11:23;9.87;;;3.30;;
69381;SDS011;56560;50.692;12.844;2024-01-06T06:13:49;9.95;;;4.05;;
69381;SDS011;56560;50.692;12.844;2024-01-06T06:16:14;9.60;;;3.10;;
69381;SDS011;56560;50.692;12.844;2024-01-06T06:18:40;11.73;;;3.73;;
69381;SDS011;56560;50.692;12.844;2024-01-06T06:21:09;11.48;;;3.40;;
69381;SDS011;56560;50.692;12.844;2024-01-06T06:23:35;9.73;;;2.97;;
69381;SDS011;56560;50.692;12.844;2024-01-06T06:26:04;8.50;;;2.70;;
69381;SDS011;56560;50.692;12.844;2024-01-06T06:28:34;9.95;;;2.60;;
69381;SDS011;56560;50.692;12.844;2024-01-06T06:31:00;9.27;;;2.70;;
69381;SDS011;56560;50.692;12.844;2024-01-06T06:33:29;8.20;;;2.70;;
69381;SDS011;56560;50.692;12.844;2024-01-06T06:35:54;10.57;;;3.13;;
69381;SDS011;56560;50.692;12.844;2024-01-06T06:38:20;10.15;;;3.38;;
69381;SDS011;56560;50.692;12.844;2024-01-06T06:40:46;10.55;;;3.47;;
69381;SDS011;56560;50.692;12.844;2024-01-06T06:43:12;10.02;;;2.95;;
69381;SDS011;56560;50.692;12.844;2024-01-06T06:45:38;10.60;;;3.45;;
69381;SDS011;56560;50.692;12.844;2024-01-06T06:48:04;13.13;;;3.70;;
69381;SDS011;56560;50.692;12.844;2024-01-06T06:50:30;12.25;;;3.55;;
69381;SDS011;56560;50.692;12.844;2024-01-06T06:52:56;10.53;;;3.60;;
69381;SDS011;56560;50.692;12.844;2024-01-06T06:55:21;17.90;;;5.27;;
69381;SDS011;56560;50.692;12.844;2024-01-06T06:57:47;14.32;;;4.80;;
69381;SDS011;56560;50.692;12.844;2024-01-06T07:00:13;14.10;;;4.30;;
69381;SDS011;56560;50.692;12.844;2024-01-06T07:02:40;11.18;;;3.42;;
69381;SDS011;56560;50.692;12.844;2024-01-06T07:05:05;13.60;;;3.63;;
69381;SDS011;56560;50.692;12.844;2024-01-06T07:07:32;9.13;;;3.35;;
69381;SDS011;56560;50.692;12.844;2024-01-06T07:09:58;10.98;;;3.70;;
69381;SDS011;56560;50.692;12.844;2024-01-06T07:12:25;10.30;;;3.60;;
69381;SDS011;56560;50.692;12.844;2024-01-06T07:14:52;11.40;;;3.53;;
69381;SDS011;56560;50.692;12.844;2024-01-06T07:17:18;10.70;;;3.53;;
69381;SDS011;56560;50.692;12.844;2024-01-06T07:19:43;11.25;;;3.80;;
69381;SDS011;56560;50.692;12.844;2024-01-06T07:22:09;12.37;;;3.90;;
69381;SDS011;56560;50.692;12.844;2024-01-06T07:24:35;18.15;;;5.80;;
69381;SDS011;56560;50.692;12.844;2024-01-06T07:27:01;19.80;;;6.67;;
69381;SDS011;56560;50.692;12.844;2024-01-06T07:29:28;21.60;;;7.00;;
69381;SDS011;56560;50.692;12.844;2024-01-06T07:31:54;17.77;;;5.63;;
69381;SDS011;56560;50.692;12.844;2024-01-06T07:34:19;13.70;;;4.93;;
69381;SDS011;56560;50.692;12.844;2024-01-06T07:36:45;11.68;;;4.15;;
69381;SDS011;56560;50.692;12.844;2024-01-06T07:39:11;15.30;;;4.93;;
69381;SDS011;56560;50.692;12.844;2024-01-06T07:41:36;27.10;;;8.63;;
69381;SDS011;56560;50.692;12.844;2024-01-06T07:44:02;29.77;;;10.77;;
69381;SDS011;56560;50.692;12.844;2024-01-06T07:46:28;48.92;;;16.92;;
69381;SDS011;56560;50.692;12.844;2024-01-06T07:48:54;35.23;;;12.07;;
69381;SDS011;56560;50.692;12.844;2024-01-06T07:51:19;25.27;;;8.35;;
69381;SDS011;56560;50.692;12.844;2024-01-06T07:53:45;21.47;;;7.30;;
69381;SDS011;56560;50.692;12.844;2024-01-06T07:56:10;23.08;;;7.50;;
69381;SDS011;56560;50.692;12.844;2024-01-06T07:58:36;18.47;;;5.90;;
69381;SDS011;56560;50.692;12.844;2024-01-06T08:01:02;15.38;;;5.95;;
69381;SDS011;56560;50.692;12.844;2024-01-06T08:03:27;17.10;;;5.43;;
69381;SDS011;56560;50.692;12.844;2024-01-06T08:05:53;13.07;;;4.40;;
69381;SDS011;56560;50.692;12.844;2024-01-06T08:08:19;19.17;;;6.97;;
69381;SDS011;56560;50.692;12.844;2024-01-06T08:10:46;26.13;;;9.77;;
69381;SDS011;56560;50.692;12.844;2024-01-06T08:13:12;18.93;;;6.00;;
69381;SDS011;56560;50.692;12.844;2024-01-06T08:15:38;24.98;;;8.43;;
69381;SDS011;56560;50.692;12.844;2024-01-06T08:18:03;44.83;;;15.80;;
69381;SDS011;56560;50.692;12.844;2024-01-06T08:20:29;88.97;;;31.73;;
69381;SDS011;56560;50.692;12.844;2024-01-06T08:22:55;75.45;;;27.30;;
69381;SDS011;56560;50.692;12.844;2024-01-06T08:25:20;51.97;;;19.90;;
69381;SDS011;56560;50.692;12.844;2024-01-06T08:27:46;26.67;;;10.37;;
69381;SDS011;56560;50.692;12.844;2024-01-06T08:30:12;18.38;;;6.85;;
69381;SDS011;56560;50.692;12.844;2024-01-06T08:32:38;15.70;;;6.07;;
69381;SDS011;56560;50.692;12.844;2024-01-06T08:35:04;18.17;;;7.53;;
69381;SDS011;56560;50.692;12.844;2024-01-06T08:37:30;18.73;;;7.10;;
69381;SDS011;56560;50.692;12.844;2024-01-06T08:39:55;20.65;;;7.47;;
69381;SDS011;56560;50.692;12.844;2024-01-06T08:42:21;16.50;;;6.70;;
69381;SDS011;56560;50.692;12.844;2024-01-06T08:44:48;17.30;;;6.53;;
69381;SDS011;56560;50.692;12.844;2024-01-06T08:47:14;15.73;;;5.53;;
69381;SDS011;56560;50.692;12.844;2024-01-06T08:49:39;15.25;;;5.47;;
69381;SDS011;56560;50.692;12.844;2024-01-06T08:52:05;17.27;;;5.60;;
69381;SDS011;56560;50.692;12.844;2024-01-06T08:54:31;14.70;;;5.38;;
69381;SDS011;56560;50.692;12.844;2024-01-06T08:56:57;12.93;;;5.10;;
69381;SDS011;56560;50.692;12.844;2024-01-06T08:59:23;14.32;;;5.07;;
69381;SDS011;56560;50.692;12.844;2024-01-06T09:01:48;14.83;;;5.40;;
69381;SDS011;56560;50.692;12.844;2024-01-06T09:04:14;13.85;;;5.15;;
69381;SDS011;56560;50.692;12.844;2024-01-06T09:06:40;12.67;;;4.90;;
69381;SDS011;56560;50.692;12.844;2024-01-06T09:09:07;11.43;;;4.65;;
69381;SDS011;56560;50.692;12.844;2024-01-06T09:11:35;13.48;;;4.72;;
69381;SDS011;56560;50.692;12.844;2024-01-06T09:14:01;14.83;;;4.73;;
69381;SDS011;56560;50.692;12.844;2024-01-06T09:16:29;15.00;;;5.65;;
69381;SDS011;56560;50.692;12.844;2024-01-06T09:18:55;15.70;;;5.60;;
69381;SDS011;56560;50.692;12.844;2024-01-06T09:21:21;15.52;;;6.10;;
69381;SDS011;56560;50.692;12.844;2024-01-06T09:23:46;14.43;;;5.40;;
69381;SDS011;56560;50.692;12.844;2024-01-06T09:26:12;14.73;;;5.20;;
69381;SDS011;56560;50.692;12.844;2024-01-06T09:28:37;14.38;;;5.43;;
69381;SDS011;56560;50.692;12.844;2024-01-06T09:31:04;13.75;;;5.20;;
69381;SDS011;56560;50.692;12.844;2024-01-06T09:33:30;13.27;;;5.50;;
69381;SDS011;56560;50.692;12.844;2024-01-06T09:35:57;14.88;;;5.72;;
69381;SDS011;56560;50.692;12.844;2024-01-06T09:38:23;15.20;;;6.03;;
69381;SDS011;56560;50.692;12.844;2024-01-06T09:40:48;20.42;;;6.47;;
69381;SDS011;56560;50.692;12.844;2024-01-06T09:43:17;15.20;;;6.13;;
69381;SDS011;56560;50.692;12.844;2024-01-06T09:45:46;15.57;;;5.70;;
69381;SDS011;56560;50.692;12.844;2024-01-06T09:48:22;14.43;;;5.28;;
69381;SDS011;56560;50.692;12.844;2024-01-06T09:50:53;12.60;;;5.35;;
69381;SDS011;56560;50.692;12.844;2024-01-06T09:53:22;13.55;;;5.15;;
69381;SDS011;56560;50.692;12.844;2024-01-06T09:55:53;15.02;;;6.00;;
69381;SDS011;56560;50.692;12.844;2024-01-06T09:58:21;16.77;;;6.83;;
69381;SDS011;56560;50.692;12.844;2024-01-06T10:00:48;20.40;;;8.60;;
69381;SDS011;56560;50.692;12.844;2024-01-06T10:03:17;14.02;;;6.20;;
69381;SDS011;56560;50.692;12.844;2024-01-06T10:05:45;23.83;;;10.52;;
69381;SDS011;56560;50.692;12.844;2024-01-06T10:08:11;44.00;;;17.00;;
69381;SDS011;56560;50.692;12.844;2024-01-06T10:10:37;29.95;;;11.93;;
69381;SDS011;56560;50.692;12.844;2024-01-06T10:13:06;29.45;;;12.95;;
69381;SDS011;56560;50.692;12.844;2024-01-06T10:15:31;37.65;;;16.35;;
69381;SDS011;56560;50.692;12.844;2024-01-06T10:18:00;19.23;;;8.18;;
69381;SDS011;56560;50.692;12.844;2024-01-06T10:20:30;17.50;;;7.45;;
69381;SDS011;56560;50.692;12.844;2024-01-06T10:22:56;17.52;;;6.85;;
69381;SDS011;56560;50.692;12.844;2024-01-06T10:25:30;20.70;;;8.82;;
69381;SDS011;56560;50.692;12.844;2024-01-06T10:27:56;23.75;;;9.93;;
69381;SDS011;56560;50.692;12.844;2024-01-06T10:30:21;20.00;;;7.77;;
69381;SDS011;56560;50.692;12.844;2024-01-06T10:32:47;18.90;;;7.13;;
69381;SDS011;56560;50.692;12.844;2024-01-06T10:35:14;19.40;;;7.68;;
69381;SDS011;56560;50.692;12.844;2024-01-06T10:37:41;21.53;;;9.13;;
69381;SDS011;56560;50.692;12.844;2024-01-06T10:42:33;18.90;;;8.02;;
69381;SDS011;56560;50.692;12.844;2024-01-06T10:45:00;21.67;;;8.43;;
69381;SDS011;56560;50.692;12.844;2024-01-06T10:47:27;18.15;;;7.22;;
69381;SDS011;56560;50.692;12.844;2024-01-06T10:49:58;16.38;;;6.82;;
69381;SDS011;56560;50.692;12.844;2024-01-06T10:52:25;15.63;;;6.85;;
69381;SDS011;56560;50.692;12.844;2024-01-06T10:54:52;15.40;;;6.10;;
69381;SDS011;56560;50.692;12.844;2024-01-06T10:57:20;16.05;;;6.18;;
69381;SDS011;56560;50.692;12.844;2024-01-06T10:59:48;15.25;;;6.15;;
69381;SDS011;56560;50.692;12.844;2024-01-06T11:02:15;14.35;;;5.72;;
69381;SDS011;56560;50.692;12.844;2024-01-06T11:04:50;13.25;;;5.45;;
69381;SDS011;56560;50.692;12.844;2024-01-06T11:07:22;13.50;;;5.07;;
69381;SDS011;56560;50.692;12.844;2024-01-06T11:09:55;13.77;;;4.72;;
69381;SDS011;56560;50.692;12.844;2024-01-06T11:12:44;11.75;;;4.30;;
69381;SDS011;56560;50.692;12.844;2024-01-06T11:15:10;11.27;;;3.90;;
69381;SDS011;56560;50.692;12.844;2024-01-06T11:18:50;11.48;;;3.78;;
69381;SDS011;56560;50.692;12.844;2024-01-06T11:26:41;14.02;;;4.40;;
69381;SDS011;56560;50.692;12.844;2024-01-06T11:29:08;11.50;;;4.25;;
69381;SDS011;56560;50.692;12.844;2024-01-06T11:31:34;13.02;;;4.53;;
69381;SDS011;56560;50.692;12.844;2024-01-06T11:34:16;12.73;;;4.15;;
69381;SDS011;56560;50.692;12.844;2024-01-06T11:36:44;12.60;;;4.75;;
69381;SDS011;56560;50.692;12.844;2024-01-06T11:42:15;12.20;;;4.35;;
69381;SDS011;56560;50.692;12.844;2024-01-06T11:44:44;11.45;;;4.50;;
69381;SDS011;56560;50.692;12.844;2024-01-06T11:47:14;13.97;;;4.90;;
69381;SDS011;56560;50.692;12.844;2024-01-06T11:49:44;12.63;;;4.40;;
69381;SDS011;56560;50.692;12.844;2024-01-06T11:52:11;10.75;;;3.67;;
69381;SDS011;56560;50.692;12.844;2024-01-06T11:54:37;12.98;;;4.78;;
69381;SDS011;56560;50.692;12.844;2024-01-06T11:57:03;12.00;;;3.85;;
69381;SDS011;56560;50.692;12.844;2024-01-06T11:59:29;13.53;;;4.20;;
69381;SDS011;56560;50.692;12.844;2024-01-06T12:01:55;12.80;;;5.57;;
69381;SDS011;56560;50.692;12.844;2024-01-06T12:04:20;12.90;;;4.93;;
69381;SDS011;56560;50.692;12.844;2024-01-06T12:06:47;23.63;;;9.70;;
69381;SDS011;56560;50.692;12.844;2024-01-06T12:09:13;100.18;;;37.03;;
69381;SDS011;56560;50.692;12.844;2024-01-06T12:11:41;44.33;;;16.38;;
69381;SDS011;56560;50.692;12.844;2024-01-06T12:14:10;33.50;;;13.33;;
69381;SDS011;56560;50.692;12.844;2024-01-06T12:16:36;26.10;;;10.23;;
69381;SDS011;56560;50.692;12.844;2024-01-06T12:19:01;20.48;;;8.20;;
69381;SDS011;56560;50.692;12.844;2024-01-06T12:21:28;18.38;;;7.53;;
69381;SDS011;56560;50.692;12.844;2024-01-06T12:24:11;21.88;;;9.30;;
69381;SDS011;56560;50.692;12.844;2024-01-06T12:26:42;36.67;;;14.57;;
69381;SDS011;56560;50.692;12.844;2024-01-06T12:29:09;16.15;;;6.60;;
69381;SDS011;56560;50.692;12.844;2024-01-06T12:31:35;20.67;;;8.90;;
69381;SDS011;56560;50.692;12.844;2024-01-06T12:34:00;18.37;;;6.93;;
69381;SDS011;56560;50.692;12.844;2024-01-06T12:36:26;14.47;;;6.20;;
69381;SDS011;56560;50.692;12.844;2024-01-06T12:38:52;12.73;;;5.38;;
69381;SDS011;56560;50.692;12.844;2024-01-06T12:41:17;14.63;;;6.10;;
69381;SDS011;56560;50.692;12.844;2024-01-06T12:43:43;14.10;;;5.88;;
69381;SDS011;56560;50.692;12.844;2024-01-06T12:46:08;11.57;;;4.47;;
69381;SDS011;56560;50.692;12.844;2024-01-06T12:48:34;12.32;;;4.40;;
69381;SDS011;56560;50.692;12.844;2024-01-06T12:51:00;16.53;;;5.53;;
69381;SDS011;56560;50.692;12.844;2024-01-06T12:53:25;14.83;;;5.63;;
69381;SDS011;56560;50.692;12.844;2024-01-06T12:55:51;13.77;;;5.25;;
69381;SDS011;56560;50.692;12.844;2024-01-06T12:58:16;11.87;;;4.97;;
69381;SDS011;56560;50.692;12.844;2024-01-06T13:00:42;24.75;;;10.40;;
69381;SDS011;56560;50.692;12.844;2024-01-06T13:03:08;20.77;;;8.10;;
69381;SDS011;56560;50.692;12.844;2024-01-06T13:05:33;15.87;;;5.80;;
69381;SDS011;56560;50.692;12.844;2024-01-06T13:07:59;12.27;;;4.67;;
69381;SDS011;56560;50.692;12.844;2024-01-06T13:10:26;14.02;;;5.07;;
69381;SDS011;56560;50.692;12.844;2024-01-06T13:12:52;13.90;;;4.70;;
69381;SDS011;56560;50.692;12.844;2024-01-06T13:15:18;13.17;;;4.97;;
69381;SDS011;56560;50.692;12.844;2024-01-06T13:17:43;14.32;;;5.25;;
69381;SDS011;56560;50.692;12.844;2024-01-06T13:20:09;13.87;;;5.17;;
69381;SDS011;56560;50.692;12.844;2024-01-06T13:22:35;15.77;;;5.38;;
69381;SDS011;56560;50.692;12.844;2024-01-06T13:25:00;15.47;;;5.00;;
69381;SDS011;56560;50.692;12.844;2024-01-06T13:27:26;15.20;;;5.15;;
69381;SDS011;56560;50.692;12.844;2024-01-06T13:29:54;14.73;;;5.90;;
69381;SDS011;56560;50.692;12.844;2024-01-06T13:32:20;17.25;;;6.13;;
69381;SDS011;56560;50.692;12.844;2024-01-06T13:34:47;12.55;;;4.95;;
69381;SDS011;56560;50.692;12.844;2024-01-06T13:37:13;15.50;;;6.03;;
69381;SDS011;56560;50.692;12.844;2024-01-06T13:39:39;16.02;;;5.97;;
69381;SDS011;56560;50.692;12.844;2024-01-06T13:42:04;15.23;;;5.97;;
69381;SDS011;56560;50.692;12.844;2024-01-06T13:44:30;16.65;;;6.80;;
69381;SDS011;56560;50.692;12.844;2024-01-06T13:46:56;17.97;;;6.63;;
69381;SDS011;56560;50.692;12.844;2024-01-06T13:49:22;17.75;;;7.15;;
69381;SDS011;56560;50.692;12.844;2024-01-06T13:51:49;15.57;;;6.18;;
69381;SDS011;56560;50.692;12.844;2024-01-06T13:54:15;19.13;;;8.25;;
69381;SDS011;56560;50.692;12.844;2024-01-06T13:56:42;16.27;;;6.55;;
69381;SDS011;56560;50.692;12.844;2024-01-06T13:59:07;17.48;;;7.40;;
69381;SDS011;56560;50.692;12.844;2024-01-06T14:01:33;16.60;;;6.70;;
69381;SDS011;56560;50.692;12.844;2024-01-06T14:03:59;16.75;;;6.47;;
69381;SDS011;56560;50.692;12.844;2024-01-06T14:06:25;14.82;;;6.32;;
69381;SDS011;56560;50.692;12.844;2024-01-06T14:08:55;20.77;;;7.30;;
69381;SDS011;56560;50.692;12.844;2024-01-06T14:11:22;20.38;;;8.13;;
69381;SDS011;56560;50.692;12.844;2024-01-06T14:13:48;15.25;;;6.15;;
69381;SDS011;56560;50.692;12.844;2024-01-06T14:16:17;17.95;;;6.55;;
69381;SDS011;56560;50.692;12.844;2024-01-06T14:18:43;18.60;;;6.50;;
69381;SDS011;56560;50.692;12.844;2024-01-06T14:21:09;16.70;;;7.30;;
69381;SDS011;56560;50.692;12.844;2024-01-06T14:23:35;17.30;;;7.40;;
69381;SDS011;56560;50.692;12.844;2024-01-06T14:26:04;16.75;;;6.40;;
69381;SDS011;56560;50.692;12.844;2024-01-06T14:28:29;16.80;;;7.00;;
69381;SDS011;56560;50.692;12.844;2024-01-06T14:30:55;18.27;;;7.38;;